Time;durP1;ratioP1;P1;durP2;ratioP2;P2;SDS_P1;SDS_P2;PMS_P1;PMS_P2;Temp;Humidity;BMP_temperature;BMP_pressure;BME280_temperature;BME280_humidity;BME280_pressure;Samples;Min_cycle;Max_cycle;Signal;HPM_P1;HPM_P2
2023/05/30 00:00:27;;;;;;;6.70;4.77;;;15.00;93.90;;;;;;5078749;28;20208;-73
2023/05/30 00:02:54;;;;;;;7.20;4.80;;;15.00;94.70;;;;;;5078813;28;20220;-72
2023/05/30 00:05:21;;;;;;;5.37;4.47;;;15.00;94.60;;;;;;5077719;28;20197;-72
2023/05/30 00:07:49;;;;;;;7.55;4.78;;;15.00;94.90;;;;;;5074810;28;20262;-72
2023/05/30 00:10:16;;;;;;;5.30;4.40;;;15.00;94.90;;;;;;5074543;28;20661;-73
2023/05/30 00:12:46;;;;;;;7.50;4.20;;;14.90;95.70;;;;;;5074367;28;20677;-73
2023/05/30 00:15:16;;;;;;;6.47;4.60;;;14.90;96.30;;;;;;5074535;28;20197;-73
2023/05/30 00:17:43;;;;;;;7.33;4.63;;;14.90;96.30;;;;;;5074409;28;20266;-74
2023/05/30 00:20:10;;;;;;;7.47;4.75;;;14.80;96.70;;;;;;5074288;28;20200;-74
2023/05/30 00:22:38;;;;;;;7.53;4.50;;;14.70;97.10;;;;;;5074115;28;20752;-73
2023/05/30 00:25:06;;;;;;;6.10;4.57;;;14.70;97.10;;;;;;5074457;28;20254;-74
2023/05/30 00:27:33;;;;;;;7.53;4.53;;;14.70;97.60;;;;;;5074158;28;20600;-74
2023/05/30 00:30:00;;;;;;;6.77;4.63;;;14.60;97.90;;;;;;5074215;28;20197;-73
2023/05/30 00:32:26;;;;;;;10.17;4.70;;;14.50;98.40;;;;;;5073623;28;20678;-75
2023/05/30 00:34:53;;;;;;;6.57;4.80;;;14.50;98.60;;;;;;5073934;28;20193;-72
2023/05/30 00:37:19;;;;;;;7.47;4.57;;;14.50;99.10;;;;;;5073961;28;20652;-72
2023/05/30 00:39:46;;;;;;;7.27;4.33;;;14.40;99.90;;;;;;5074048;28;20197;-73
2023/05/30 00:42:14;;;;;;;8.30;4.93;;;14.40;99.90;;;;;;5074063;28;20258;-73
2023/05/30 00:44:41;;;;;;;5.23;4.70;;;14.40;99.90;;;;;;5073903;28;20201;-73
2023/05/30 00:47:07;;;;;;;6.77;4.40;;;14.30;99.90;;;;;;5073753;28;20603;-73
2023/05/30 00:49:34;;;;;;;5.57;4.50;;;14.30;99.90;;;;;;5073889;28;20197;-72
2023/05/30 00:52:02;;;;;;;7.77;4.77;;;14.30;99.90;;;;;;5073590;28;20599;-74
2023/05/30 00:54:28;;;;;;;7.07;4.63;;;14.30;99.90;;;;;;5073431;28;20298;-74
2023/05/30 00:56:55;;;;;;;5.57;4.43;;;14.20;99.90;;;;;;5073677;28;20266;-74
2023/05/30 00:59:23;;;;;;;7.90;4.87;;;14.20;99.90;;;;;;5073035;28;20251;-74
2023/05/30 01:01:51;;;;;;;6.73;4.97;;;14.20;99.90;;;;;;5073130;28;20197;-74
2023/05/30 01:04:18;;;;;;;5.67;4.87;;;14.10;99.90;;;;;;5073666;28;20243;-74
2023/05/30 01:06:46;;;;;;;7.63;4.50;;;13.90;99.90;;;;;;5073572;28;20207;-74
2023/05/30 01:09:14;;;;;;;7.23;4.60;;;13.90;99.90;;;;;;5073495;28;20196;-74
2023/05/30 01:11:50;;;;;;;8.17;4.53;;;13.90;99.90;;;;;;5073426;28;20305;-74
2023/05/30 01:14:25;;;;;;;6.00;4.67;;;13.90;99.90;;;;;;5073088;28;20704;-75
2023/05/30 01:16:57;;;;;;;7.37;5.20;;;13.90;99.90;;;;;;5073303;28;20685;-75
2023/05/30 01:19:56;;;;;;;5.87;4.53;;;13.80;99.90;;;;;;5073335;28;20197;-74
2023/05/30 01:22:32;;;;;;;10.97;5.20;;;13.80;99.90;;;;;;5068369;28;20657;-75
2023/05/30 01:25:12;;;;;;;7.87;4.97;;;13.80;99.90;;;;;;5073098;28;20671;-75
2023/05/30 01:27:54;;;;;;;7.57;4.63;;;13.70;99.90;;;;;;5073566;28;20227;-74
2023/05/30 01:30:24;;;;;;;6.50;4.60;;;13.60;99.90;;;;;;5073110;28;20193;-75
2023/05/30 01:32:51;;;;;;;6.87;4.63;;;13.70;99.90;;;;;;5073015;28;20769;-75
2023/05/30 01:35:22;;;;;;;7.13;4.50;;;13.60;99.90;;;;;;5073152;28;20262;-75
2023/05/30 01:37:49;;;;;;;5.83;4.90;;;13.60;99.90;;;;;;5073435;28;20246;-75
2023/05/30 01:40:20;;;;;;;7.77;4.80;;;13.60;99.90;;;;;;5073193;28;20201;-75
2023/05/30 01:42:49;;;;;;;7.37;4.63;;;13.50;99.90;;;;;;5073206;28;20201;-75
2023/05/30 01:45:21;;;;;;;5.60;4.80;;;13.50;99.90;;;;;;5073053;28;20255;-75
2023/05/30 01:47:59;;;;;;;7.73;4.70;;;13.50;99.90;;;;;;5073220;28;20774;-75
2023/05/30 01:50:32;;;;;;;8.17;4.47;;;13.50;99.90;;;;;;5073079;28;20196;-75
2023/05/30 01:53:00;;;;;;;8.27;4.97;;;13.50;99.90;;;;;;5072753;28;20228;-75
2023/05/30 01:55:28;;;;;;;7.30;5.00;;;13.50;99.90;;;;;;5072842;28;20635;-75
2023/05/30 01:57:58;;;;;;;9.77;4.57;;;13.30;99.90;;;;;;5073037;28;20193;-75
2023/05/30 02:00:27;;;;;;;6.20;4.40;;;13.40;99.90;;;;;;5072877;28;20653;-75
2023/05/30 02:02:54;;;;;;;6.90;4.40;;;13.30;99.90;;;;;;5072947;28;20271;-75
2023/05/30 02:05:21;;;;;;;7.97;4.73;;;13.30;99.90;;;;;;5072848;28;20197;-75
2023/05/30 02:07:47;;;;;;;6.50;4.63;;;13.40;99.90;;;;;;5072649;28;20652;-75
2023/05/30 02:10:14;;;;;;;8.90;4.67;;;13.30;99.90;;;;;;5072461;28;20201;-75
2023/05/30 02:12:40;;;;;;;7.00;4.40;;;13.30;99.90;;;;;;5076033;28;20306;-75
2023/05/30 02:15:08;;;;;;;9.27;4.67;;;13.30;99.90;;;;;;5076822;28;20650;-75
2023/05/30 02:17:36;;;;;;;7.80;4.97;;;13.20;99.90;;;;;;5077138;28;20197;-75
2023/05/30 02:20:03;;;;;;;7.00;4.87;;;13.10;99.90;;;;;;5077036;28;20209;-75
2023/05/30 02:22:29;;;;;;;7.23;4.57;;;13.20;99.90;;;;;;5076861;28;20204;-75
2023/05/30 02:24:57;;;;;;;6.87;4.60;;;13.10;99.90;;;;;;5076679;28;20558;-75
2023/05/30 02:27:24;;;;;;;6.47;4.20;;;13.00;99.90;;;;;;5076619;28;20193;-76
2023/05/30 02:29:51;;;;;;;6.40;4.80;;;13.10;99.90;;;;;;5076865;28;20204;-76
2023/05/30 02:32:17;;;;;;;10.20;4.63;;;13.10;99.90;;;;;;5076590;28;20239;-75
2023/05/30 02:34:45;;;;;;;7.17;4.47;;;13.00;99.90;;;;;;5076516;28;20220;-76
2023/05/30 02:37:12;;;;;;;6.63;4.40;;;13.10;99.90;;;;;;5076411;28;20201;-75
2023/05/30 02:39:38;;;;;;;6.87;4.57;;;13.20;99.90;;;;;;5076212;28;20729;-74
2023/05/30 02:42:06;;;;;;;8.77;4.83;;;13.00;99.90;;;;;;5076490;28;20201;-75
2023/05/30 02:44:33;;;;;;;7.50;4.50;;;13.00;99.90;;;;;;5076379;28;20206;-74
2023/05/30 02:47:00;;;;;;;6.57;4.30;;;13.20;99.90;;;;;;5076326;28;20201;-75
2023/05/30 02:49:27;;;;;;;9.30;4.47;;;13.10;99.90;;;;;;5076074;28;20756;-75
2023/05/30 02:51:55;;;;;;;7.30;4.73;;;13.00;99.90;;;;;;5076003;28;20193;-75
2023/05/30 02:54:23;;;;;;;6.93;4.87;;;13.00;99.90;;;;;;5075691;28;20746;-75
2023/05/30 02:56:49;;;;;;;7.67;4.73;;;13.00;99.90;;;;;;5076136;28;20208;-75
2023/05/30 02:59:16;;;;;;;5.60;4.23;;;13.00;99.90;;;;;;5075854;28;20668;-76
2023/05/30 03:01:43;;;;;;;7.10;4.87;;;13.00;99.90;;;;;;5076064;28;20197;-75
2023/05/30 03:04:10;;;;;;;7.47;4.70;;;13.00;99.90;;;;;;5076087;28;20588;-76
2023/05/30 03:06:37;;;;;;;5.37;4.37;;;12.90;99.90;;;;;;5075842;28;20204;-75
2023/05/30 03:09:05;;;;;;;7.83;4.40;;;12.90;99.90;;;;;;5075866;28;20239;-75
2023/05/30 03:11:32;;;;;;;10.33;5.03;;;12.80;99.90;;;;;;5076107;28;20193;-75
2023/05/30 03:13:58;;;;;;;10.07;4.53;;;12.90;99.90;;;;;;5075790;28;20213;-75
2023/05/30 03:16:26;;;;;;;6.60;4.77;;;12.80;99.90;;;;;;5075776;28;20201;-75
2023/05/30 03:18:53;;;;;;;7.57;4.80;;;12.80;99.90;;;;;;5075638;28;20254;-75
2023/05/30 03:21:20;;;;;;;7.33;4.43;;;12.70;99.90;;;;;;5075534;28;20242;-75
2023/05/30 03:23:48;;;;;;;7.67;4.43;;;12.80;99.90;;;;;;5074189;28;20205;-75
2023/05/30 03:26:16;;;;;;;7.57;4.50;;;12.80;99.90;;;;;;5075503;28;20228;-75
2023/05/30 03:28:42;;;;;;;5.07;4.00;;;12.90;99.90;;;;;;5075478;28;20229;-75
2023/05/30 03:31:10;;;;;;;21.20;4.80;;;12.80;99.90;;;;;;5075376;28;20247;-76
2023/05/30 03:33:37;;;;;;;7.77;4.60;;;12.90;99.90;;;;;;5075193;28;20316;-75
2023/05/30 03:36:05;;;;;;;6.53;4.23;;;12.90;99.90;;;;;;5075156;28;20200;-75
2023/05/30 03:38:32;;;;;;;7.30;4.20;;;12.80;99.90;;;;;;5075432;28;20196;-76
2023/05/30 03:40:58;;;;;;;7.97;5.03;;;12.60;99.90;;;;;;5075421;28;20201;-75
2023/05/30 03:43:26;;;;;;;8.47;4.13;;;12.80;99.90;;;;;;5075212;28;20197;-76
2023/05/30 03:45:53;;;;;;;5.77;4.10;;;12.80;99.90;;;;;;5075186;28;20258;-75
2023/05/30 03:48:19;;;;;;;10.23;4.63;;;12.90;99.90;;;;;;5075124;28;20202;-75
2023/05/30 03:50:46;;;;;;;8.20;4.37;;;12.90;99.90;;;;;;5074983;28;20205;-75
2023/05/30 03:53:12;;;;;;;8.03;4.77;;;12.80;99.90;;;;;;5074811;28;20720;-75
2023/05/30 03:55:40;;;;;;;8.20;4.57;;;12.90;99.90;;;;;;5074855;28;20224;-75
2023/05/30 03:58:06;;;;;;;6.77;4.57;;;13.00;99.90;;;;;;5074875;28;20200;-76
2023/05/30 04:00:34;;;;;;;7.63;4.70;;;13.00;99.90;;;;;;5074793;28;20197;-75
2023/05/30 04:03:01;;;;;;;7.20;4.63;;;13.00;99.90;;;;;;5074690;28;20714;-74
2023/05/30 04:05:27;;;;;;;6.43;4.07;;;13.00;99.90;;;;;;5074632;28;20239;-76
2023/05/30 04:07:54;;;;;;;6.40;4.30;;;13.00;99.90;;;;;;5074901;28;20201;-74
2023/05/30 04:10:21;;;;;;;5.07;4.13;;;13.10;99.90;;;;;;5074748;28;20201;-75
2023/05/30 04:12:48;;;;;;;8.63;4.50;;;13.10;99.90;;;;;;5074670;28;20239;-76
2023/05/30 04:15:15;;;;;;;11.00;4.57;;;13.20;99.90;;;;;;5074466;28;20224;-75
2023/05/30 04:17:42;;;;;;;6.50;4.40;;;13.20;99.90;;;;;;5074278;28;20708;-75
2023/05/30 04:20:10;;;;;;;5.53;4.50;;;13.30;99.90;;;;;;5074569;28;20193;-75
2023/05/30 04:22:36;;;;;;;8.07;4.50;;;13.30;99.90;;;;;;5074468;28;20227;-75
2023/05/30 04:25:05;;;;;;;10.17;4.10;;;13.50;99.90;;;;;;5074347;28;20201;-76
2023/05/30 04:27:32;;;;;;;8.87;4.27;;;13.50;99.90;;;;;;5074392;28;20201;-76
2023/05/30 04:30:03;;;;;;;7.07;4.27;;;13.50;99.90;;;;;;5074258;28;20204;-76
2023/05/30 04:32:33;;;;;;;6.33;4.30;;;13.50;99.90;;;;;;5073982;28;20282;-75
2023/05/30 04:35:02;;;;;;;5.33;3.90;;;13.60;99.90;;;;;;5073658;28;20691;-74
2023/05/30 04:37:28;;;;;;;6.33;4.50;;;13.70;99.90;;;;;;5074069;28;20201;-75
2023/05/30 04:39:55;;;;;;;4.87;3.80;;;13.70;99.90;;;;;;5073839;28;20710;-76
2023/05/30 04:42:26;;;;;;;7.93;4.40;;;13.70;99.90;;;;;;5073726;28;20629;-76
2023/05/30 04:44:53;;;;;;;6.90;3.70;;;13.80;99.90;;;;;;5073969;28;20197;-76
2023/05/30 04:47:21;;;;;;;8.73;4.20;;;13.90;99.90;;;;;;5073973;28;20403;-76
2023/05/30 04:49:48;;;;;;;6.33;4.20;;;13.90;99.90;;;;;;5073454;28;20622;-75
2023/05/30 04:52:16;;;;;;;8.77;4.23;;;14.00;99.90;;;;;;5073597;28;20209;-76
2023/05/30 04:54:43;;;;;;;6.30;4.17;;;14.10;99.90;;;;;;5073315;28;20267;-76
2023/05/30 04:57:09;;;;;;;6.30;4.27;;;14.10;99.90;;;;;;5073526;28;20197;-76
2023/05/30 04:59:36;;;;;;;6.50;4.10;;;14.10;99.90;;;;;;5073530;28;20201;-76
2023/05/30 05:02:02;;;;;;;6.27;3.57;;;14.20;99.90;;;;;;5073580;28;20205;-75
2023/05/30 05:04:29;;;;;;;9.10;4.20;;;14.30;99.90;;;;;;5073553;28;20197;-77
2023/05/30 05:06:57;;;;;;;7.37;4.30;;;14.40;99.90;;;;;;5073527;28;20714;-75
2023/05/30 05:09:26;;;;;;;8.07;4.63;;;14.40;99.90;;;;;;5073375;28;20594;-76
2023/05/30 05:11:53;;;;;;;8.03;3.90;;;14.50;99.90;;;;;;5073156;28;20553;-76
2023/05/30 05:14:19;;;;;;;8.00;4.00;;;14.60;99.90;;;;;;5073316;28;20286;-76
2023/05/30 05:16:46;;;;;;;9.30;4.87;;;14.70;99.90;;;;;;5073028;28;20726;-76
2023/05/30 05:19:13;;;;;;;5.85;3.78;;;14.90;99.90;;;;;;5073223;28;20200;-76
2023/05/30 05:21:39;;;;;;;12.75;4.60;;;15.00;99.90;;;;;;5073006;28;20201;-76
2023/05/30 05:24:08;;;;;;;9.30;4.85;;;15.20;99.90;;;;;;5073101;28;20250;-76
2023/05/30 05:26:36;;;;;;;7.88;3.85;;;15.30;99.90;;;;;;5072974;28;20604;-76
2023/05/30 05:29:03;;;;;;;7.22;3.78;;;15.20;99.90;;;;;;5073016;28;20254;-76
2023/05/30 05:31:32;;;;;;;5.45;3.83;;;15.30;99.90;;;;;;5072926;28;20197;-76
2023/05/30 05:33:59;;;;;;;6.45;3.55;;;15.50;99.90;;;;;;5072934;28;20243;-76
2023/05/30 05:36:26;;;;;;;7.85;4.07;;;15.60;99.50;;;;;;5072932;28;20201;-76
2023/05/30 05:38:52;;;;;;;16.42;3.88;;;15.70;99.60;;;;;;5072887;28;20255;-76
2023/05/30 05:41:19;;;;;;;14.77;4.75;;;15.70;99.10;;;;;;5072782;28;20262;-76
2023/05/30 05:43:47;;;;;;;6.13;4.13;;;15.90;98.50;;;;;;5072894;28;20201;-76
2023/05/30 05:46:13;;;;;;;9.13;3.85;;;16.00;98.30;;;;;;5072110;28;20653;-76
2023/05/30 05:48:40;;;;;;;9.95;4.15;;;16.10;97.90;;;;;;5072707;28;20201;-77
2023/05/30 05:51:07;;;;;;;5.80;3.50;;;16.30;97.00;;;;;;5072423;28;20546;-77
2023/05/30 05:53:34;;;;;;;8.38;4.15;;;16.40;96.80;;;;;;5072304;28;20730;-77
2023/05/30 05:56:01;;;;;;;5.07;3.63;;;16.50;95.80;;;;;;5072665;28;20282;-77
2023/05/30 05:58:27;;;;;;;9.07;3.58;;;16.60;95.80;;;;;;5072806;28;20219;-76
2023/05/30 06:00:55;;;;;;;5.53;3.75;;;16.70;94.40;;;;;;5072770;28;20196;-77
2023/05/30 06:03:22;;;;;;;7.10;4.28;;;16.70;94.50;;;;;;5072442;28;20197;-77
2023/05/30 06:05:49;;;;;;;6.53;3.63;;;16.70;93.80;;;;;;5072706;28;20212;-76
2023/05/30 06:08:15;;;;;;;6.00;3.65;;;16.50;93.90;;;;;;5072275;28;20208;-76
2023/05/30 06:10:42;;;;;;;7.80;3.97;;;16.60;94.00;;;;;;5072595;28;20250;-77
2023/05/30 06:13:09;;;;;;;8.95;4.00;;;16.60;93.70;;;;;;5072487;28;20264;-77
2023/05/30 06:15:35;;;;;;;6.45;3.78;;;16.80;93.80;;;;;;5072491;28;20255;-77
2023/05/30 06:18:04;;;;;;;6.40;3.63;;;16.80;92.80;;;;;;5072425;28;20278;-77
2023/05/30 06:20:31;;;;;;;9.02;3.80;;;16.80;93.40;;;;;;5072411;28;20197;-76
2023/05/30 06:22:57;;;;;;;5.05;3.72;;;16.90;92.80;;;;;;5072269;28;20197;-76
2023/05/30 06:25:25;;;;;;;6.60;4.00;;;17.00;92.40;;;;;;5072469;28;20204;-76
2023/05/30 06:27:52;;;;;;;6.28;3.88;;;17.00;93.00;;;;;;5072293;28;20266;-74
2023/05/30 06:30:19;;;;;;;6.95;3.45;;;17.10;92.40;;;;;;5072429;28;20204;-78
2023/05/30 06:32:45;;;;;;;4.45;3.72;;;17.30;92.00;;;;;;5072332;28;20250;-78
2023/05/30 06:35:13;;;;;;;5.43;3.30;;;17.30;92.20;;;;;;5072305;28;20221;-76
2023/05/30 06:37:40;;;;;;;6.78;3.33;;;17.30;91.50;;;;;;5072370;28;20213;-78
2023/05/30 06:40:08;;;;;;;5.45;3.38;;;17.30;91.40;;;;;;5072382;28;20664;-78
2023/05/30 06:42:35;;;;;;;5.82;3.65;;;17.40;91.30;;;;;;5072101;28;20219;-77
2023/05/30 06:45:01;;;;;;;5.57;3.35;;;17.60;90.50;;;;;;5072126;28;20296;-77
2023/05/30 06:47:28;;;;;;;6.32;3.90;;;17.70;89.80;;;;;;5072192;28;20641;-75
2023/05/30 06:49:55;;;;;;;5.13;3.20;;;17.70;90.40;;;;;;5071997;28;20778;-76
2023/05/30 06:52:23;;;;;;;6.80;3.90;;;17.70;89.10;;;;;;5072222;28;20224;-74
2023/05/30 06:54:49;;;;;;;5.32;3.45;;;17.90;89.00;;;;;;5071425;28;20237;-76
2023/05/30 06:57:16;;;;;;;6.72;3.42;;;18.00;87.30;;;;;;5072759;28;20653;-77
2023/05/30 06:59:42;;;;;;;9.65;3.85;;;18.00;86.50;;;;;;5075748;28;20242;-76
2023/05/30 07:02:10;;;;;;;5.93;3.55;;;17.90;85.20;;;;;;5075655;28;20223;-74
2023/05/30 07:04:37;;;;;;;5.75;3.17;;;17.80;84.80;;;;;;5075618;28;20679;-73
2023/05/30 07:07:04;;;;;;;6.97;3.95;;;17.80;84.50;;;;;;5075801;28;20209;-74
2023/05/30 07:09:32;;;;;;;12.63;3.78;;;18.00;85.60;;;;;;5075822;28;20205;-75
2023/05/30 07:11:59;;;;;;;9.90;4.00;;;18.00;84.00;;;;;;5075297;28;20318;-71
2023/05/30 07:14:25;;;;;;;7.35;4.00;;;18.10;83.20;;;;;;5075009;28;20748;-73
2023/05/30 07:16:52;;;;;;;7.38;3.55;;;18.20;83.50;;;;;;5074860;28;20200;-74
2023/05/30 07:19:18;;;;;;;7.88;3.80;;;18.20;80.90;;;;;;5075612;28;20197;-76
2023/05/30 07:21:45;;;;;;;5.95;3.63;;;18.20;82.30;;;;;;5075328;28;20261;-75
2023/05/30 07:24:12;;;;;;;5.28;3.08;;;18.30;81.10;;;;;;5075098;28;20277;-75
2023/05/30 07:26:40;;;;;;;8.18;3.80;;;18.40;81.30;;;;;;5075103;28;20197;-74
2023/05/30 07:29:06;;;;;;;8.23;3.53;;;18.50;81.00;;;;;;5055231;28;20288;-77
2023/05/30 07:31:33;;;;;;;8.18;3.75;;;18.60;80.60;;;;;;5055296;28;20248;-77
2023/05/30 07:34:00;;;;;;;6.78;4.03;;;18.80;79.90;;;;;;5074279;28;20197;-77
2023/05/30 07:36:26;;;;;;;8.82;3.83;;;18.80;79.20;;;;;;5075058;28;20271;-75
2023/05/30 07:38:53;;;;;;;9.07;3.47;;;19.10;78.80;;;;;;5075111;28;20270;-75
2023/05/30 07:41:20;;;;;;;6.03;3.65;;;19.20;76.50;;;;;;5074571;28;20656;-75
2023/05/30 07:43:48;;;;;;;6.18;3.78;;;19.20;75.50;;;;;;5074582;28;20193;-75
2023/05/30 07:46:15;;;;;;;6.57;3.70;;;19.20;74.40;;;;;;5074384;28;20193;-73
2023/05/30 07:48:41;;;;;;;8.10;3.67;;;19.20;74.80;;;;;;5075102;28;20201;-85
2023/05/30 07:51:09;;;;;;;3.90;3.35;;;19.40;73.90;;;;;;5074679;28;20193;-75
2023/05/30 07:53:36;;;;;;;9.63;3.97;;;19.30;73.70;;;;;;5074785;28;20255;-74
2023/05/30 07:56:03;;;;;;;7.53;4.32;;;19.50;74.30;;;;;;5074144;28;20645;-76
2023/05/30 07:58:30;;;;;;;6.00;3.30;;;19.50;73.20;;;;;;5074156;28;20205;-76
2023/05/30 08:00:58;;;;;;;6.93;3.30;;;19.60;73.30;;;;;;5074903;28;20254;-75
2023/05/30 08:03:25;;;;;;;6.40;3.50;;;19.70;72.90;;;;;;5074631;28;20205;-75
2023/05/30 08:05:52;;;;;;;6.15;3.67;;;19.80;72.90;;;;;;5073673;28;20224;-75
2023/05/30 08:08:19;;;;;;;11.35;4.32;;;20.00;72.30;;;;;;5074778;28;20201;-75
2023/05/30 08:10:45;;;;;;;5.47;3.60;;;20.00;71.40;;;;;;5074209;28;20254;-76
2023/05/30 08:13:13;;;;;;;4.60;3.17;;;20.00;70.60;;;;;;5074588;28;20193;-75
2023/05/30 08:15:40;;;;;;;6.25;3.88;;;20.20;71.70;;;;;;5074379;28;20530;-76
2023/05/30 08:18:08;;;;;;;7.88;4.45;;;20.50;70.40;;;;;;5074591;28;20247;-75
2023/05/30 08:20:36;;;;;;;6.70;4.15;;;20.50;69.40;;;;;;5074450;28;20251;-76
2023/05/30 08:23:03;;;;;;;5.82;3.58;;;20.40;69.20;;;;;;5074424;28;20200;-76
2023/05/30 08:25:32;;;;;;;8.52;3.75;;;20.60;68.90;;;;;;5074268;28;20205;-75
2023/05/30 08:27:59;;;;;;;6.93;3.85;;;20.80;67.80;;;;;;5074205;28;20201;-75
2023/05/30 08:30:26;;;;;;;8.73;3.97;;;20.70;67.30;;;;;;5074267;28;20243;-75
2023/05/30 08:32:53;;;;;;;5.63;3.53;;;20.90;67.10;;;;;;5074228;28;20251;-75
2023/05/30 08:35:21;;;;;;;9.25;3.88;;;20.70;67.30;;;;;;5074231;28;20217;-76
2023/05/30 08:37:48;;;;;;;10.40;3.67;;;21.10;67.70;;;;;;5073915;28;20736;-77
2023/05/30 08:40:15;;;;;;;6.10;3.85;;;21.40;65.50;;;;;;5073930;28;20718;-76
2023/05/30 08:42:42;;;;;;;7.72;3.50;;;21.50;66.10;;;;;;5074259;28;20197;-76
2023/05/30 08:45:11;;;;;;;7.55;3.70;;;21.60;64.10;;;;;;5074081;28;20197;-76
2023/05/30 08:47:37;;;;;;;5.40;3.40;;;21.80;64.00;;;;;;5073978;28;20200;-76
2023/05/30 08:50:07;;;;;;;7.18;4.03;;;21.80;62.90;;;;;;5073911;28;20205;-76
2023/05/30 08:52:36;;;;;;;6.47;3.40;;;21.90;60.50;;;;;;5073766;28;20205;-77
2023/05/30 08:55:12;;;;;;;6.82;3.55;;;22.00;59.30;;;;;;5073925;28;20557;-76
2023/05/30 08:57:48;;;;;;;11.48;3.97;;;22.00;57.80;;;;;;5073879;28;20197;-76
2023/05/30 09:00:17;;;;;;;7.30;3.92;;;22.20;58.50;;;;;;5073746;28;20192;-76
2023/05/30 09:02:44;;;;;;;7.22;3.95;;;22.40;58.00;;;;;;5073528;28;20240;-77
2023/05/30 09:05:14;;;;;;;6.95;3.70;;;22.60;57.00;;;;;;5073519;28;20197;-76
2023/05/30 09:07:44;;;;;;;5.32;3.38;;;22.80;57.00;;;;;;5073395;28;20205;-76
2023/05/30 09:10:12;;;;;;;8.02;3.85;;;22.90;54.70;;;;;;5073519;28;20197;-76
2023/05/30 09:12:38;;;;;;;8.07;4.13;;;22.70;55.70;;;;;;5073493;28;20205;-76
2023/05/30 09:15:06;;;;;;;9.85;3.53;;;22.80;55.10;;;;;;5073345;28;20290;-76
2023/05/30 09:17:33;;;;;;;7.65;3.80;;;23.00;54.60;;;;;;5072954;28;20201;-76
2023/05/30 09:20:00;;;;;;;6.35;3.38;;;23.30;53.60;;;;;;5081426;28;20243;-84
2023/05/30 09:22:28;;;;;;;8.15;3.97;;;23.40;52.20;;;;;;5075034;28;20197;-75
2023/05/30 09:25:00;;;;;;;7.97;4.55;;;23.60;52.50;;;;;;5061821;28;20259;-82
2023/05/30 09:27:29;;;;;;;8.43;3.90;;;23.70;50.90;;;;;;5059032;28;20548;-82
2023/05/30 09:29:56;;;;;;;6.85;4.07;;;24.00;50.20;;;;;;5073542;28;20675;-83
2023/05/30 09:32:28;;;;;;;7.80;4.03;;;23.90;50.00;;;;;;5067276;28;20251;-86
2023/05/30 09:34:56;;;;;;;7.75;4.00;;;24.20;49.30;;;;;;5073691;28;20288;-85
2023/05/30 09:37:23;;;;;;;11.30;5.03;;;24.30;47.70;;;;;;5074037;28;20231;-87
2023/05/30 09:40:09;;;;;;;6.53;3.53;;;24.60;49.10;;;;;;5073549;28;20197;-75
2023/05/30 09:42:40;;;;;;;6.10;3.70;;;24.70;47.00;;;;;;5072366;28;20193;-75
2023/05/30 09:45:08;;;;;;;6.53;4.45;;;24.90;47.00;;;;;;5072737;28;20282;-75
2023/05/30 09:47:44;;;;;;;6.63;3.80;;;25.30;47.00;;;;;;5072991;28;20201;-75
2023/05/30 09:50:12;;;;;;;6.45;3.95;;;25.50;43.10;;;;;;5072865;28;20193;-75
2023/05/30 09:52:40;;;;;;;4.53;3.38;;;25.30;43.40;;;;;;5072539;28;20197;-74
2023/05/30 09:55:10;;;;;;;4.38;3.33;;;25.20;43.60;;;;;;5072233;28;20197;-74
2023/05/30 09:57:38;;;;;;;8.20;3.72;;;25.30;43.40;;;;;;5072504;28;20695;-76
2023/05/30 10:00:09;;;;;;;6.85;3.70;;;25.80;42.10;;;;;;5072505;28;20227;-75
2023/05/30 10:02:37;;;;;;;7.93;3.50;;;25.80;40.40;;;;;;5072788;28;20203;-75
2023/05/30 10:05:04;;;;;;;6.47;4.10;;;25.60;40.60;;;;;;5072523;28;20207;-75
2023/05/30 10:07:32;;;;;;;8.23;3.80;;;25.80;39.90;;;;;;5072455;28;20197;-76
2023/05/30 10:09:59;;;;;;;6.32;3.40;;;26.00;38.20;;;;;;5072117;28;20343;-76
2023/05/30 10:12:28;;;;;;;6.35;3.45;;;26.20;38.30;;;;;;5072605;28;20204;-76
2023/05/30 10:14:54;;;;;;;5.70;3.80;;;26.50;37.00;;;;;;5072076;28;20193;-76
2023/05/30 10:17:24;;;;;;;5.93;3.63;;;26.70;35.80;;;;;;5072254;28;20566;-76
2023/05/30 10:19:57;;;;;;;7.00;3.65;;;26.80;36.10;;;;;;5072465;28;20201;-76
2023/05/30 10:22:26;;;;;;;5.90;3.88;;;27.10;34.10;;;;;;5072348;28;20535;-76
2023/05/30 10:24:54;;;;;;;8.77;3.67;;;27.20;34.00;;;;;;5072507;28;20200;-76
2023/05/30 10:27:28;;;;;;;5.65;3.47;;;27.50;32.80;;;;;;5072492;28;20211;-76
2023/05/30 10:30:03;;;;;;;5.85;3.67;;;27.70;31.20;;;;;;5074128;28;20270;-76
2023/05/30 10:32:33;;;;;;;6.30;3.47;;;27.80;31.60;;;;;;5075805;28;20200;-76
2023/05/30 10:35:06;;;;;;;5.82;3.75;;;27.60;31.80;;;;;;5076263;28;20323;-75
2023/05/30 10:37:34;;;;;;;9.70;4.10;;;27.70;30.60;;;;;;5075713;28;20966;-76
2023/05/30 10:40:12;;;;;;;5.32;3.50;;;28.20;30.20;;;;;;5076259;28;20196;-76
2023/05/30 10:42:46;;;;;;;5.07;3.50;;;28.50;29.20;;;;;;5076232;28;20196;-76
2023/05/30 10:45:17;;;;;;;5.80;3.83;;;29.00;29.70;;;;;;5076043;28;20609;-76
2023/05/30 10:47:52;;;;;;;4.60;3.70;;;29.50;28.50;;;;;;5076271;28;20269;-77
2023/05/30 10:50:24;;;;;;;9.63;3.60;;;30.10;28.00;;;;;;5076277;28;20196;-76
2023/05/30 10:52:54;;;;;;;5.40;3.40;;;30.50;27.20;;;;;;5075667;28;20713;-76
2023/05/30 10:55:21;;;;;;;8.75;3.70;;;29.60;28.40;;;;;;5075881;28;20563;-76
2023/05/30 10:57:48;;;;;;;8.18;3.55;;;30.80;27.50;;;;;;5075663;28;20224;-76
2023/05/30 11:00:21;;;;;;;6.60;3.33;;;30.80;26.50;;;;;;5076009;28;20205;-76
2023/05/30 11:02:52;;;;;;;5.07;3.40;;;31.10;25.40;;;;;;5075946;28;20197;-76
2023/05/30 11:05:21;;;;;;;6.50;3.35;;;28.90;25.90;;;;;;5075840;28;20648;-76
2023/05/30 11:07:48;;;;;;;6.40;3.30;;;28.80;26.40;;;;;;5075979;28;20253;-75
2023/05/30 11:10:24;;;;;;;7.30;3.63;;;26.90;28.50;;;;;;5075479;28;20242;-76
2023/05/30 11:12:52;;;;;;;5.75;3.50;;;29.30;26.70;;;;;;5075927;28;20287;-76
2023/05/30 11:15:33;;;;;;;3.72;3.33;;;30.60;25.10;;;;;;5075636;28;20200;-76
2023/05/30 11:17:59;;;;;;;7.55;3.58;;;30.90;23.70;;;;;;5075635;28;20224;-76
2023/05/30 11:20:26;;;;;;;8.52;3.35;;;30.70;24.20;;;;;;5075537;28;20196;-76
2023/05/30 11:23:19;;;;;;;6.13;3.42;;;29.80;25.10;;;;;;5075304;28;20652;-76
2023/05/30 11:25:46;;;;;;;6.97;3.55;;;30.80;24.00;;;;;;5075285;28;20537;-78
2023/05/30 11:28:18;;;;;;;7.18;3.78;;;31.70;22.50;;;;;;5075528;28;20208;-78
2023/05/30 11:30:47;;;;;;;7.82;3.50;;;30.10;22.20;;;;;;5075523;28;20228;-79
2023/05/30 11:33:15;;;;;;;4.00;3.53;;;30.70;23.40;;;;;;5074967;28;20590;-79
2023/05/30 11:35:45;;;;;;;8.02;3.50;;;31.40;22.00;;;;;;5075728;28;20200;-82
2023/05/30 11:38:17;;;;;;;4.07;3.60;;;32.50;21.10;;;;;;5079412;28;20196;-79
2023/05/30 11:40:44;;;;;;;4.95;3.40;;;32.60;20.50;;;;;;5076692;28;20223;-80
2023/05/30 11:43:14;;;;;;;5.05;3.45;;;30.60;22.00;;;;;;5074537;28;20555;-81
2023/05/30 11:45:42;;;;;;;4.60;3.30;;;31.70;20.50;;;;;;5074406;28;20204;-80
2023/05/30 11:48:10;;;;;;;5.53;3.30;;;32.60;20.20;;;;;;5075246;28;20251;-78
2023/05/30 11:50:39;;;;;;;6.97;3.10;;;33.20;19.20;;;;;;5075119;28;20537;-80
2023/05/30 11:53:13;;;;;;;6.60;3.90;;;30.90;18.90;;;;;;5074886;28;20232;-81
2023/05/30 11:55:40;;;;;;;5.88;3.80;;;30.30;21.30;;;;;;5074850;28;20560;-84
2023/05/30 11:58:07;;;;;;;5.30;3.33;;;32.30;19.40;;;;;;5074701;28;20228;-83
2023/05/30 12:00:33;;;;;;;4.80;3.40;;;33.40;18.50;;;;;;5075007;28;20196;-84
2023/05/30 12:03:02;;;;;;;4.70;3.33;;;34.50;17.70;;;;;;5074748;28;20222;-73
2023/05/30 12:05:30;;;;;;;4.68;3.08;;;33.70;17.80;;;;;;5074682;28;20219;-77
2023/05/30 12:07:56;;;;;;;5.65;3.00;;;33.50;17.90;;;;;;5074455;28;20238;-77
2023/05/30 12:10:30;;;;;;;4.28;3.33;;;34.30;16.70;;;;;;5074595;28;20603;-79
2023/05/30 12:12:56;;;;;;;5.63;3.53;;;35.00;16.40;;;;;;5074530;28;20199;-78
2023/05/30 12:15:23;;;;;;;7.72;3.38;;;31.40;17.90;;;;;;5074144;28;20478;-78
2023/05/30 12:17:51;;;;;;;6.82;3.50;;;33.20;17.70;;;;;;5074471;28;20282;-78
2023/05/30 12:20:21;;;;;;;8.57;3.65;;;33.80;16.70;;;;;;5074138;28;20658;-78
2023/05/30 12:22:48;;;;;;;6.35;3.03;;;34.10;16.20;;;;;;5074285;28;20192;-78
2023/05/30 12:25:15;;;;;;;5.45;2.92;;;34.60;16.30;;;;;;5074121;28;20652;-79
2023/05/30 12:27:43;;;;;;;4.20;3.20;;;35.90;15.40;;;;;;5074146;28;20652;-79
2023/05/30 12:30:14;;;;;;;4.07;3.08;;;36.50;14.20;;;;;;5074186;28;20204;-79
2023/05/30 12:32:41;;;;;;;7.50;3.38;;;36.70;14.00;;;;;;5074281;28;20200;-80
2023/05/30 12:35:09;;;;;;;5.25;3.30;;;37.10;13.60;;;;;;5074138;28;20224;-79
2023/05/30 12:37:37;;;;;;;5.43;3.40;;;36.30;13.50;;;;;;5073840;28;20227;-78
2023/05/30 12:40:06;;;;;;;4.82;3.20;;;36.50;12.80;;;;;;5074361;28;20259;-79
2023/05/30 12:42:34;;;;;;;5.95;3.20;;;37.10;13.20;;;;;;5073961;28;20250;-79
2023/05/30 12:45:03;;;;;;;6.70;3.42;;;37.30;12.30;;;;;;5073931;28;20222;-79
2023/05/30 12:47:30;;;;;;;4.88;3.20;;;35.80;12.10;;;;;;5073882;28;20207;-79
2023/05/30 12:49:57;;;;;;;8.80;3.25;;;36.10;12.30;;;;;;5073772;28;20246;-79